sensor_id;sensor_type;location;lat;lon;timestamp;pressure;altitude;pressure_sealevel;temperature
72278;BMP280;61204;49.980;8.358;2024-01-07T00:02:19;100164.53;;;5.06
72278;BMP280;61204;49.980;8.358;2024-01-07T00:04:44;100174.88;;;4.92
72278;BMP280;61204;49.980;8.358;2024-01-07T00:07:10;100169.06;;;5.11
72278;BMP280;61204;49.980;8.358;2024-01-07T00:09:36;100175.94;;;5.05
72278;BMP280;61204;49.980;8.358;2024-01-07T00:12:04;100181.03;;;5.08
72278;BMP280;61204;49.980;8.358;2024-01-07T00:14:32;100184.47;;;5.01
72278;BMP280;61204;49.980;8.358;2024-01-07T00:16:57;100178.47;;;5.10
72278;BMP280;61204;49.980;8.358;2024-01-07T00:19:23;100179.38;;;4.97
72278;BMP280;61204;49.980;8.358;2024-01-07T00:21:49;100181.56;;;5.07
72278;BMP280;61204;49.980;8.358;2024-01-07T00:24:15;100187.50;;;5.13
72278;BMP280;61204;49.980;8.358;2024-01-07T00:26:41;100195.31;;;5.09
72278;BMP280;61204;49.980;8.358;2024-01-07T00:29:07;100191.69;;;5.06
72278;BMP280;61204;49.980;8.358;2024-01-07T00:31:34;100190.81;;;5.04
72278;BMP280;61204;49.980;8.358;2024-01-07T00:34:00;100186.47;;;5.08
72278;BMP280;61204;49.980;8.358;2024-01-07T00:36:25;100189.50;;;5.12
72278;BMP280;61204;49.980;8.358;2024-01-07T00:38:53;100189.34;;;5.10
72278;BMP280;61204;49.980;8.358;2024-01-07T00:41:21;100192.06;;;5.10
72278;BMP280;61204;49.980;8.358;2024-01-07T00:43:47;100196.59;;;5.00
72278;BMP280;61204;49.980;8.358;2024-01-07T00:46:12;100193.13;;;5.07
72278;BMP280;61204;49.980;8.358;2024-01-07T00:48:38;100204.72;;;5.15
72278;BMP280;61204;49.980;8.358;2024-01-07T00:51:06;100205.97;;;5.22
72278;BMP280;61204;49.980;8.358;2024-01-07T00:53:31;100201.28;;;5.22
72278;BMP280;61204;49.980;8.358;2024-01-07T00:55:57;100211.97;;;5.13
72278;BMP280;61204;49.980;8.358;2024-01-07T00:58:24;100204.75;;;5.08
72278;BMP280;61204;49.980;8.358;2024-01-07T01:00:50;100206.19;;;5.01
72278;BMP280;61204;49.980;8.358;2024-01-07T01:03:20;100202.38;;;4.96
72278;BMP280;61204;49.980;8.358;2024-01-07T01:05:45;100201.28;;;4.99
72278;BMP280;61204;49.980;8.358;2024-01-07T01:08:11;100213.44;;;5.06
72278;BMP280;61204;49.980;8.358;2024-01-07T01:10:41;100204.38;;;5.04
72278;BMP280;61204;49.980;8.358;2024-01-07T01:13:10;100221.06;;;5.00
72278;BMP280;61204;49.980;8.358;2024-01-07T01:15:36;100218.69;;;4.96
72278;BMP280;61204;49.980;8.358;2024-01-07T01:18:02;100212.16;;;5.07
72278;BMP280;61204;49.980;8.358;2024-01-07T01:20:28;100222.84;;;4.97
72278;BMP280;61204;49.980;8.358;2024-01-07T01:22:53;100226.13;;;5.11
72278;BMP280;61204;49.980;8.358;2024-01-07T01:25:19;100224.84;;;5.05
72278;BMP280;61204;49.980;8.358;2024-01-07T01:27:45;100227.00;;;4.98
72278;BMP280;61204;49.980;8.358;2024-01-07T01:30:11;100231.38;;;5.01
72278;BMP280;61204;49.980;8.358;2024-01-07T01:32:38;100231.03;;;4.90
72278;BMP280;61204;49.980;8.358;2024-01-07T01:35:04;100234.63;;;5.00
72278;BMP280;61204;49.980;8.358;2024-01-07T01:37:31;100232.09;;;4.94
72278;BMP280;61204;49.980;8.358;2024-01-07T01:40:00;100237.34;;;5.00
72278;BMP280;61204;49.980;8.358;2024-01-07T01:42:25;100237.16;;;4.90
72278;BMP280;61204;49.980;8.358;2024-01-07T01:44:51;100234.44;;;4.98
72278;BMP280;61204;49.980;8.358;2024-01-07T01:47:18;100243.88;;;4.97
72278;BMP280;61204;49.980;8.358;2024-01-07T01:49:45;100246.97;;;4.93
72278;BMP280;61204;49.980;8.358;2024-01-07T01:52:12;100247.13;;;4.88
72278;BMP280;61204;49.980;8.358;2024-01-07T01:54:40;100234.81;;;4.87
72278;BMP280;61204;49.980;8.358;2024-01-07T01:57:06;100246.75;;;4.84
72278;BMP280;61204;49.980;8.358;2024-01-07T01:59:42;100243.88;;;4.82
72278;BMP280;61204;49.980;8.358;2024-01-07T02:02:11;100248.56;;;4.81
72278;BMP280;61204;49.980;8.358;2024-01-07T02:04:39;100240.25;;;4.87
72278;BMP280;61204;49.980;8.358;2024-01-07T02:07:05;100236.78;;;4.79
72278;BMP280;61204;49.980;8.358;2024-01-07T02:09:31;100242.78;;;4.85
72278;BMP280;61204;49.980;8.358;2024-01-07T02:12:03;100233.91;;;4.76
72278;BMP280;61204;49.980;8.358;2024-01-07T02:14:30;100238.25;;;4.87
72278;BMP280;61204;49.980;8.358;2024-01-07T02:16:56;100234.81;;;4.71
72278;BMP280;61204;49.980;8.358;2024-01-07T02:19:22;100232.81;;;4.72
72278;BMP280;61204;49.980;8.358;2024-01-07T02:21:50;100234.44;;;4.75
72278;BMP280;61204;49.980;8.358;2024-01-07T02:24:17;100238.78;;;4.78
72278;BMP280;61204;49.980;8.358;2024-01-07T02:26:43;100229.91;;;4.78
72278;BMP280;61204;49.980;8.358;2024-01-07T02:29:11;100242.03;;;4.84
72278;BMP280;61204;49.980;8.358;2024-01-07T02:31:37;100228.44;;;4.84
72278;BMP280;61204;49.980;8.358;2024-01-07T02:34:03;100244.59;;;4.90
72278;BMP280;61204;49.980;8.358;2024-01-07T02:36:31;100248.38;;;4.87
72278;BMP280;61204;49.980;8.358;2024-01-07T02:38:56;100240.78;;;4.78
72278;BMP280;61204;49.980;8.358;2024-01-07T02:41:22;100246.41;;;4.87
72278;BMP280;61204;49.980;8.358;2024-01-07T02:43:50;100263.22;;;4.78
72278;BMP280;61204;49.980;8.358;2024-01-07T02:46:16;100256.19;;;4.90
72278;BMP280;61204;49.980;8.358;2024-01-07T02:48:42;100259.09;;;4.85
72278;BMP280;61204;49.980;8.358;2024-01-07T02:51:10;100252.91;;;4.76
72278;BMP280;61204;49.980;8.358;2024-01-07T02:53:36;100255.97;;;4.73
72278;BMP280;61204;49.980;8.358;2024-01-07T02:56:02;100248.03;;;4.75
72278;BMP280;61204;49.980;8.358;2024-01-07T02:58:27;100254.53;;;4.72
72278;BMP280;61204;49.980;8.358;2024-01-07T03:00:55;100252.19;;;4.76
72278;BMP280;61204;49.980;8.358;2024-01-07T03:03:24;100252.19;;;4.84
72278;BMP280;61204;49.980;8.358;2024-01-07T03:05:49;100254.19;;;4.75
72278;BMP280;61204;49.980;8.358;2024-01-07T03:08:15;100254.38;;;4.85
72278;BMP280;61204;49.980;8.358;2024-01-07T03:10:40;100257.44;;;4.82
72278;BMP280;61204;49.980;8.358;2024-01-07T03:13:06;100253.09;;;4.79
72278;BMP280;61204;49.980;8.358;2024-01-07T03:15:32;100269.22;;;4.76
72278;BMP280;61204;49.980;8.358;2024-01-07T03:17:57;100257.25;;;4.72
72278;BMP280;61204;49.980;8.358;2024-01-07T03:20:23;100262.16;;;4.73
72278;BMP280;61204;49.980;8.358;2024-01-07T03:22:48;100255.81;;;4.79
72278;BMP280;61204;49.980;8.358;2024-01-07T03:25:14;100261.41;;;4.88
72278;BMP280;61204;49.980;8.358;2024-01-07T03:27:40;100265.59;;;4.82
72278;BMP280;61204;49.980;8.358;2024-01-07T03:30:05;100256.75;;;4.89
72278;BMP280;61204;49.980;8.358;2024-01-07T03:32:31;100264.31;;;4.83
72278;BMP280;61204;49.980;8.358;2024-01-07T03:34:57;100257.63;;;4.91
72278;BMP280;61204;49.980;8.358;2024-01-07T03:37:22;100261.41;;;4.81
72278;BMP280;61204;49.980;8.358;2024-01-07T03:39:50;100265.03;;;4.75
72278;BMP280;61204;49.980;8.358;2024-01-07T03:42:16;100265.03;;;4.75
72278;BMP280;61204;49.980;8.358;2024-01-07T03:44:42;100271.56;;;4.72
72278;BMP280;61204;49.980;8.358;2024-01-07T03:47:08;100261.78;;;4.77
72278;BMP280;61204;49.980;8.358;2024-01-07T03:49:36;100262.50;;;4.78
72278;BMP280;61204;49.980;8.358;2024-01-07T03:52:03;100269.19;;;4.69
72278;BMP280;61204;49.980;8.358;2024-01-07T03:54:33;100267.94;;;4.70
72278;BMP280;61204;49.980;8.358;2024-01-07T03:56:59;100263.06;;;4.76
72278;BMP280;61204;49.980;8.358;2024-01-07T03:59:27;100264.66;;;4.64
72278;BMP280;61204;49.980;8.358;2024-01-07T04:01:55;100274.09;;;4.70
72278;BMP280;61204;49.980;8.358;2024-01-07T04:04:22;100269.03;;;4.82
72278;BMP280;61204;49.980;8.358;2024-01-07T04:06:48;100268.47;;;4.68
72278;BMP280;61204;49.980;8.358;2024-01-07T04:09:16;100277.88;;;4.67
72278;BMP280;61204;49.980;8.358;2024-01-07T04:11:42;100277.84;;;4.60
72278;BMP280;61204;49.980;8.358;2024-01-07T04:14:08;100284.22;;;4.70
72278;BMP280;61204;49.980;8.358;2024-01-07T04:16:34;100287.69;;;4.70
72278;BMP280;61204;49.980;8.358;2024-01-07T04:19:00;100286.41;;;4.71
72278;BMP280;61204;49.980;8.358;2024-01-07T04:21:26;100292.91;;;4.68
72278;BMP280;61204;49.980;8.358;2024-01-07T04:23:54;100286.22;;;4.77
72278;BMP280;61204;49.980;8.358;2024-01-07T04:26:20;100285.69;;;4.71
72278;BMP280;61204;49.980;8.358;2024-01-07T04:28:45;100292.91;;;4.68
72278;BMP280;61204;49.980;8.358;2024-01-07T04:31:11;100300.34;;;4.75
72278;BMP280;61204;49.980;8.358;2024-01-07T04:33:36;100298.00;;;4.72
72278;BMP280;61204;49.980;8.358;2024-01-07T04:36:04;100305.41;;;4.71
72278;BMP280;61204;49.980;8.358;2024-01-07T04:38:30;100309.78;;;4.82
72278;BMP280;61204;49.980;8.358;2024-01-07T04:40:56;100308.69;;;4.70
72278;BMP280;61204;49.980;8.358;2024-01-07T04:43:22;100310.59;;;4.54
72278;BMP280;61204;49.980;8.358;2024-01-07T04:45:47;100311.88;;;4.61
72278;BMP280;61204;49.980;8.358;2024-01-07T04:48:18;100314.25;;;4.57
72278;BMP280;61204;49.980;8.358;2024-01-07T04:50:44;100311.00;;;4.58
72278;BMP280;61204;49.980;8.358;2024-01-07T04:53:10;100312.22;;;4.49
72278;BMP280;61204;49.980;8.358;2024-01-07T04:55:36;100309.47;;;4.42
72278;BMP280;61204;49.980;8.358;2024-01-07T04:58:02;100311.84;;;4.45
72278;BMP280;61204;49.980;8.358;2024-01-07T05:00:29;100308.78;;;4.49
72278;BMP280;61204;49.980;8.358;2024-01-07T05:02:55;100303.84;;;4.40
72278;BMP280;61204;49.980;8.358;2024-01-07T05:05:23;100313.44;;;4.33
72278;BMP280;61204;49.980;8.358;2024-01-07T05:07:51;100311.78;;;4.30
72278;BMP280;61204;49.980;8.358;2024-01-07T05:10:17;100310.34;;;4.29
72278;BMP280;61204;49.980;8.358;2024-01-07T05:12:42;100307.97;;;4.25
72278;BMP280;61204;49.980;8.358;2024-01-07T05:15:08;100307.22;;;4.17
72278;BMP280;61204;49.980;8.358;2024-01-07T05:17:34;100314.44;;;4.15
72278;BMP280;61204;49.980;8.358;2024-01-07T05:20:00;100321.13;;;4.14
72278;BMP280;61204;49.980;8.358;2024-01-07T05:22:26;100324.03;;;4.16
72278;BMP280;61204;49.980;8.358;2024-01-07T05:24:51;100325.84;;;4.21
72278;BMP280;61204;49.980;8.358;2024-01-07T05:27:17;100322.91;;;4.11
72278;BMP280;61204;49.980;8.358;2024-01-07T05:29:45;100327.31;;;4.22
72278;BMP280;61204;49.980;8.358;2024-01-07T05:32:12;100338.69;;;4.13
72278;BMP280;61204;49.980;8.358;2024-01-07T05:34:38;100325.84;;;4.13
72278;BMP280;61204;49.980;8.358;2024-01-07T05:37:06;100329.78;;;4.12
72278;BMP280;61204;49.980;8.358;2024-01-07T05:39:31;100338.69;;;4.13
72278;BMP280;61204;49.980;8.358;2024-01-07T05:41:57;100326.56;;;4.14
72278;BMP280;61204;49.980;8.358;2024-01-07T05:44:22;100344.84;;;4.13
72278;BMP280;61204;49.980;8.358;2024-01-07T05:46:48;100347.88;;;4.10
72278;BMP280;61204;49.980;8.358;2024-01-07T05:49:13;100351.53;;;4.20
72278;BMP280;61204;49.980;8.358;2024-01-07T05:51:40;100355.69;;;4.13
72278;BMP280;61204;49.980;8.358;2024-01-07T05:54:06;100356.22;;;4.19
72278;BMP280;61204;49.980;8.358;2024-01-07T05:56:32;100356.03;;;4.10
72278;BMP280;61204;49.980;8.358;2024-01-07T05:58:57;100357.69;;;4.13
72278;BMP280;61204;49.980;8.358;2024-01-07T06:01:23;100355.50;;;4.19
72278;BMP280;61204;49.980;8.358;2024-01-07T06:03:49;100356.06;;;4.17
72278;BMP280;61204;49.980;8.358;2024-01-07T06:06:14;100362.91;;;4.18
72278;BMP280;61204;49.980;8.358;2024-01-07T06:08:43;100362.00;;;4.16
72278;BMP280;61204;49.980;8.358;2024-01-07T06:11:12;100369.66;;;4.25
72278;BMP280;61204;49.980;8.358;2024-01-07T06:13:43;100375.59;;;4.23
72278;BMP280;61204;49.980;8.358;2024-01-07T06:16:10;100378.53;;;4.25
72278;BMP280;61204;49.980;8.358;2024-01-07T06:18:35;100381.84;;;4.32
72278;BMP280;61204;49.980;8.358;2024-01-07T06:21:01;100386.75;;;4.41
72278;BMP280;61204;49.980;8.358;2024-01-07T06:23:27;100390.19;;;4.41
72278;BMP280;61204;49.980;8.358;2024-01-07T06:25:53;100389.09;;;4.37
72278;BMP280;61204;49.980;8.358;2024-01-07T06:28:18;100401.44;;;4.45
72278;BMP280;61204;49.980;8.358;2024-01-07T06:30:44;100407.56;;;4.46
72278;BMP280;61204;49.980;8.358;2024-01-07T06:33:09;100403.66;;;4.55
72278;BMP280;61204;49.980;8.358;2024-01-07T06:35:35;100413.22;;;4.48
72278;BMP280;61204;49.980;8.358;2024-01-07T06:38:01;100418.25;;;4.44
72278;BMP280;61204;49.980;8.358;2024-01-07T06:40:26;100421.16;;;4.46
72278;BMP280;61204;49.980;8.358;2024-01-07T06:42:52;100433.81;;;4.43
72278;BMP280;61204;49.980;8.358;2024-01-07T06:45:17;100443.09;;;4.48
72278;BMP280;61204;49.980;8.358;2024-01-07T06:47:43;100449.88;;;4.34
72278;BMP280;61204;49.980;8.358;2024-01-07T06:50:10;100439.16;;;4.28
72278;BMP280;61204;49.980;8.358;2024-01-07T06:52:36;100442.94;;;4.25
72278;BMP280;61204;49.980;8.358;2024-01-07T06:55:04;100443.44;;;4.23
72278;BMP280;61204;49.980;8.358;2024-01-07T06:57:30;100453.41;;;4.21
72278;BMP280;61204;49.980;8.358;2024-01-07T06:59:55;100455.19;;;4.18
72278;BMP280;61204;49.980;8.358;2024-01-07T07:02:21;100468.22;;;4.20
72278;BMP280;61204;49.980;8.358;2024-01-07T07:04:49;100461.53;;;4.21
72278;BMP280;61204;49.980;8.358;2024-01-07T07:07:16;100459.19;;;4.17
72278;BMP280;61204;49.980;8.358;2024-01-07T07:09:42;100474.91;;;4.19
72278;BMP280;61204;49.980;8.358;2024-01-07T07:12:08;100467.53;;;4.27
72278;BMP280;61204;49.980;8.358;2024-01-07T07:14:33;100474.00;;;4.16
72278;BMP280;61204;49.980;8.358;2024-01-07T07:17:00;100482.50;;;4.13
72278;BMP280;61204;49.980;8.358;2024-01-07T07:19:25;100492.41;;;4.10
72278;BMP280;61204;49.980;8.358;2024-01-07T07:21:51;100487.84;;;4.05
72278;BMP280;61204;49.980;8.358;2024-01-07T07:24:16;100486.78;;;4.08
72278;BMP280;61204;49.980;8.358;2024-01-07T07:26:42;100491.06;;;4.04
72278;BMP280;61204;49.980;8.358;2024-01-07T07:29:08;100503.03;;;4.08
72278;BMP280;61204;49.980;8.358;2024-01-07T07:31:37;100503.13;;;3.95
72278;BMP280;61204;49.980;8.358;2024-01-07T07:34:03;100508.16;;;3.91
72278;BMP280;61204;49.980;8.358;2024-01-07T07:36:30;100520.59;;;3.86
72278;BMP280;61204;49.980;8.358;2024-01-07T07:38:55;100515.69;;;3.85
72278;BMP280;61204;49.980;8.358;2024-01-07T07:41:21;100523.63;;;3.83
72278;BMP280;61204;49.980;8.358;2024-01-07T07:43:47;100518.22;;;3.83
72278;BMP280;61204;49.980;8.358;2024-01-07T07:46:12;100533.53;;;3.80
72278;BMP280;61204;49.980;8.358;2024-01-07T07:48:38;100544.38;;;3.80
72278;BMP280;61204;49.980;8.358;2024-01-07T07:51:06;100533.53;;;3.80
72278;BMP280;61204;49.980;8.358;2024-01-07T07:53:32;100542.19;;;3.79
72278;BMP280;61204;49.980;8.358;2024-01-07T07:55:58;100534.47;;;3.83
72278;BMP280;61204;49.980;8.358;2024-01-07T07:58:24;100548.69;;;3.76
72278;BMP280;61204;49.980;8.358;2024-01-07T08:00:49;100558.41;;;3.71
72278;BMP280;61204;49.980;8.358;2024-01-07T08:03:15;100556.94;;;3.70
72278;BMP280;61204;49.980;8.358;2024-01-07T08:05:46;100564.34;;;3.69
72278;BMP280;61204;49.980;8.358;2024-01-07T08:08:14;100564.34;;;3.69
72278;BMP280;61204;49.980;8.358;2024-01-07T08:10:42;100565.50;;;3.74
72278;BMP280;61204;49.980;8.358;2024-01-07T08:13:08;100572.16;;;3.73
72278;BMP280;61204;49.980;8.358;2024-01-07T08:15:34;100582.16;;;3.78
72278;BMP280;61204;49.980;8.358;2024-01-07T08:18:03;100583.25;;;3.75
72278;BMP280;61204;49.980;8.358;2024-01-07T08:20:30;100585.81;;;3.81
72278;BMP280;61204;49.980;8.358;2024-01-07T08:22:56;100587.97;;;3.82
72278;BMP280;61204;49.980;8.358;2024-01-07T08:25:21;100594.78;;;3.76
72278;BMP280;61204;49.980;8.358;2024-01-07T08:27:48;100590.09;;;3.76
72278;BMP280;61204;49.980;8.358;2024-01-07T08:30:16;100588.28;;;3.79
72278;BMP280;61204;49.980;8.358;2024-01-07T08:32:42;100599.69;;;3.77
72278;BMP280;61204;49.980;8.358;2024-01-07T08:35:10;100606.34;;;3.76
72278;BMP280;61204;49.980;8.358;2024-01-07T08:37:38;100604.19;;;3.74
72278;BMP280;61204;49.980;8.358;2024-01-07T08:40:07;100612.84;;;3.73
72278;BMP280;61204;49.980;8.358;2024-01-07T08:42:35;100618.50;;;3.75
72278;BMP280;61204;49.980;8.358;2024-01-07T08:45:01;100594.97;;;3.78
72278;BMP280;61204;49.980;8.358;2024-01-07T08:47:29;100617.22;;;3.76
72278;BMP280;61204;49.980;8.358;2024-01-07T08:49:58;100607.97;;;3.71
72278;BMP280;61204;49.980;8.358;2024-01-07T08:52:24;100616.47;;;3.76
72278;BMP280;61204;49.980;8.358;2024-01-07T08:54:49;100620.84;;;3.79
72278;BMP280;61204;49.980;8.358;2024-01-07T08:57:15;100630.66;;;3.82
72278;BMP280;61204;49.980;8.358;2024-01-07T08:59:43;100625.34;;;3.76
72278;BMP280;61204;49.980;8.358;2024-01-07T09:02:11;100635.66;;;3.78
72278;BMP280;61204;49.980;8.358;2024-01-07T09:04:37;100634.94;;;3.77
72278;BMP280;61204;49.980;8.358;2024-01-07T09:07:03;100634.56;;;3.73
72278;BMP280;61204;49.980;8.358;2024-01-07T09:09:31;100641.91;;;3.86
72278;BMP280;61204;49.980;8.358;2024-01-07T09:11:57;100645.78;;;3.77
72278;BMP280;61204;49.980;8.358;2024-01-07T09:14:24;100651.53;;;3.73
72278;BMP280;61204;49.980;8.358;2024-01-07T09:16:50;100662.41;;;3.73
72278;BMP280;61204;49.980;8.358;2024-01-07T09:19:16;100664.44;;;3.81
72278;BMP280;61204;49.980;8.358;2024-01-07T09:21:42;100656.63;;;3.77
72278;BMP280;61204;49.980;8.358;2024-01-07T09:24:09;100675.09;;;3.79
72278;BMP280;61204;49.980;8.358;2024-01-07T09:26:37;100678.31;;;3.77
72278;BMP280;61204;49.980;8.358;2024-01-07T09:29:04;100683.03;;;3.77
72278;BMP280;61204;49.980;8.358;2024-01-07T09:31:30;100689.91;;;3.78
72278;BMP280;61204;49.980;8.358;2024-01-07T09:33:56;100703.50;;;3.64
72278;BMP280;61204;49.980;8.358;2024-01-07T09:36:24;100698.19;;;3.72
72278;BMP280;61204;49.980;8.358;2024-01-07T09:38:50;100683.91;;;3.71
72278;BMP280;61204;49.980;8.358;2024-01-07T09:41:15;100705.19;;;3.67
72278;BMP280;61204;49.980;8.358;2024-01-07T09:43:41;100706.72;;;3.63
72278;BMP280;61204;49.980;8.358;2024-01-07T09:46:07;100707.63;;;3.79
72278;BMP280;61204;49.980;8.358;2024-01-07T09:48:32;100713.72;;;3.71
72278;BMP280;61204;49.980;8.358;2024-01-07T09:51:01;100715.69;;;3.71
72278;BMP280;61204;49.980;8.358;2024-01-07T09:53:33;100721.19;;;3.79
72278;BMP280;61204;49.980;8.358;2024-01-07T09:56:12;100709.03;;;3.72
72278;BMP280;61204;49.980;8.358;2024-01-07T09:58:50;100707.25;;;3.74
72278;BMP280;61204;49.980;8.358;2024-01-07T10:01:19;100718.28;;;3.63
72278;BMP280;61204;49.980;8.358;2024-01-07T10:03:45;100725.81;;;3.70
72278;BMP280;61204;49.980;8.358;2024-01-07T10:06:11;100731.75;;;3.69
72278;BMP280;61204;49.980;8.358;2024-01-07T10:08:38;100725.50;;;3.74
72278;BMP280;61204;49.980;8.358;2024-01-07T10:11:04;100730.38;;;3.76
72278;BMP280;61204;49.980;8.358;2024-01-07T10:13:31;100744.88;;;3.78
72278;BMP280;61204;49.980;8.358;2024-01-07T10:15:57;100735.19;;;3.83
72278;BMP280;61204;49.980;8.358;2024-01-07T10:18:23;100727.78;;;3.70
72278;BMP280;61204;49.980;8.358;2024-01-07T10:20:50;100743.03;;;3.60
72278;BMP280;61204;49.980;8.358;2024-01-07T10:23:20;100733.63;;;3.47
72278;BMP280;61204;49.980;8.358;2024-01-07T10:25:45;100745.00;;;3.46
72278;BMP280;61204;49.980;8.358;2024-01-07T10:28:12;100738.19;;;3.39
72278;BMP280;61204;49.980;8.358;2024-01-07T10:30:39;100737.47;;;3.39
72278;BMP280;61204;49.980;8.358;2024-01-07T10:33:07;100755.91;;;3.40
72278;BMP280;61204;49.980;8.358;2024-01-07T10:35:36;100745.28;;;3.56
72278;BMP280;61204;49.980;8.358;2024-01-07T10:38:07;100747.69;;;3.46
72278;BMP280;61204;49.980;8.358;2024-01-07T10:40:32;100751.47;;;3.56
72278;BMP280;61204;49.980;8.358;2024-01-07T10:42:59;100745.19;;;3.48
72278;BMP280;61204;49.980;8.358;2024-01-07T10:45:25;100755.50;;;3.63
72278;BMP280;61204;49.980;8.358;2024-01-07T10:47:56;100748.34;;;3.65
72278;BMP280;61204;49.980;8.358;2024-01-07T10:50:31;100761.84;;;3.52
72278;BMP280;61204;49.980;8.358;2024-01-07T10:53:03;100745.59;;;3.39
72278;BMP280;61204;49.980;8.358;2024-01-07T10:55:34;100746.84;;;3.38
72278;BMP280;61204;49.980;8.358;2024-01-07T10:58:04;100742.16;;;3.52
72278;BMP280;61204;49.980;8.358;2024-01-07T11:00:31;100754.69;;;3.55
72278;BMP280;61204;49.980;8.358;2024-01-07T11:04:13;100745.28;;;3.56
72278;BMP280;61204;49.980;8.358;2024-01-07T11:07:09;100735.28;;;3.51
72278;BMP280;61204;49.980;8.358;2024-01-07T11:10:04;100762.50;;;3.58
72278;BMP280;61204;49.980;8.358;2024-01-07T11:12:37;100760.09;;;3.41
72278;BMP280;61204;49.980;8.358;2024-01-07T11:15:06;100773.34;;;3.45
72278;BMP280;61204;49.980;8.358;2024-01-07T11:20:01;100765.69;;;3.30
72278;BMP280;61204;49.980;8.358;2024-01-07T11:22:29;100760.47;;;3.32
72278;BMP280;61204;49.980;8.358;2024-01-07T11:24:59;100765.28;;;3.26
72278;BMP280;61204;49.980;8.358;2024-01-07T11:27:31;100760.19;;;3.22
72278;BMP280;61204;49.980;8.358;2024-01-07T11:30:10;100767.22;;;3.26
72278;BMP280;61204;49.980;8.358;2024-01-07T11:32:45;100766.44;;;3.31
72278;BMP280;61204;49.980;8.358;2024-01-07T11:35:13;100763.41;;;3.34
72278;BMP280;61204;49.980;8.358;2024-01-07T11:37:41;100780.03;;;3.25
72278;BMP280;61204;49.980;8.358;2024-01-07T11:40:08;100775.91;;;3.24
72278;BMP280;61204;49.980;8.358;2024-01-07T11:42:34;100775.94;;;3.37
72278;BMP280;61204;49.980;8.358;2024-01-07T11:44:59;100779.81;;;3.42
72278;BMP280;61204;49.980;8.358;2024-01-07T11:47:25;100773.66;;;3.55
72278;BMP280;61204;49.980;8.358;2024-01-07T11:49:53;100765.41;;;3.47
72278;BMP280;61204;49.980;8.358;2024-01-07T11:52:20;100766.94;;;3.29
72278;BMP280;61204;49.980;8.358;2024-01-07T11:54:47;100771.50;;;3.21
72278;BMP280;61204;49.980;8.358;2024-01-07T11:57:14;100778.28;;;3.28
72278;BMP280;61204;49.980;8.358;2024-01-07T11:59:39;100771.25;;;3.38
72278;BMP280;61204;49.980;8.358;2024-01-07T12:02:05;100776.50;;;3.17
72278;BMP280;61204;49.980;8.358;2024-01-07T12:04:33;100771.09;;;3.17
72278;BMP280;61204;49.980;8.358;2024-01-07T12:07:00;100777.03;;;3.29
72278;BMP280;61204;49.980;8.358;2024-01-07T12:09:30;100781.97;;;3.30
72278;BMP280;61204;49.980;8.358;2024-01-07T12:11:56;100792.91;;;3.25
72278;BMP280;61204;49.980;8.358;2024-01-07T12:14:25;100785.69;;;3.27
72278;BMP280;61204;49.980;8.358;2024-01-07T12:16:51;100789.13;;;3.14
72278;BMP280;61204;49.980;8.358;2024-01-07T12:19:17;100783.63;;;3.20
72278;BMP280;61204;49.980;8.358;2024-01-07T12:21:47;100792.72;;;3.36
72278;BMP280;61204;49.980;8.358;2024-01-07T12:24:13;100787.88;;;3.29
72278;BMP280;61204;49.980;8.358;2024-01-07T12:26:50;100762.38;;;3.24
72278;BMP280;61204;49.980;8.358;2024-01-07T12:29:17;100792.47;;;3.20
72278;BMP280;61204;49.980;8.358;2024-01-07T12:31:43;100800.59;;;3.20
72278;BMP280;61204;49.980;8.358;2024-01-07T12:34:11;100795.78;;;3.13
72278;BMP280;61204;49.980;8.358;2024-01-07T12:36:38;100798.28;;;3.11
72278;BMP280;61204;49.980;8.358;2024-01-07T12:39:06;100801.13;;;3.19
72278;BMP280;61204;49.980;8.358;2024-01-07T12:41:34;100797.88;;;3.20
72278;BMP280;61204;49.980;8.358;2024-01-07T12:44:05;100800.19;;;3.30
72278;BMP280;61204;49.980;8.358;2024-01-07T12:46:34;100806.84;;;3.29
72278;BMP280;61204;49.980;8.358;2024-01-07T12:49:02;100804.03;;;3.21
72278;BMP280;61204;49.980;8.358;2024-01-07T12:51:28;100815.41;;;3.19
72278;BMP280;61204;49.980;8.358;2024-01-07T12:53:54;100802.44;;;3.26
72278;BMP280;61204;49.980;8.358;2024-01-07T12:56:22;100816.13;;;3.20
72278;BMP280;61204;49.980;8.358;2024-01-07T12:58:50;100812.19;;;3.02
72278;BMP280;61204;49.980;8.358;2024-01-07T13:01:18;100805.75;;;3.05
72278;BMP280;61204;49.980;8.358;2024-01-07T13:03:47;100820.47;;;2.91
72278;BMP280;61204;49.980;8.358;2024-01-07T13:06:14;100823.41;;;2.93
72278;BMP280;61204;49.980;8.358;2024-01-07T13:08:40;100785.66;;;2.82
72278;BMP280;61204;49.980;8.358;2024-01-07T13:11:12;100825.38;;;2.73
72278;BMP280;61204;49.980;8.358;2024-01-07T13:13:41;100806.59;;;2.62
72278;BMP280;61204;49.980;8.358;2024-01-07T13:16:07;100816.38;;;2.65
72278;BMP280;61204;49.980;8.358;2024-01-07T13:18:32;100792.19;;;2.54
72278;BMP280;61204;49.980;8.358;2024-01-07T13:21:01;100835.03;;;2.50
72278;BMP280;61204;49.980;8.358;2024-01-07T13:23:31;100823.25;;;2.47
72278;BMP280;61204;49.980;8.358;2024-01-07T13:26:00;100816.88;;;2.45
72278;BMP280;61204;49.980;8.358;2024-01-07T13:28:31;100841.03;;;2.43
72278;BMP280;61204;49.980;8.358;2024-01-07T13:31:02;100855.66;;;2.53
72278;BMP280;61204;49.980;8.358;2024-01-07T13:33:33;100841.03;;;2.43
72278;BMP280;61204;49.980;8.358;2024-01-07T13:36:02;100833.13;;;2.45
72278;BMP280;61204;49.980;8.358;2024-01-07T13:38:28;100843.28;;;2.39
72278;BMP280;61204;49.980;8.358;2024-01-07T13:40:57;100851.56;;;2.46
72278;BMP280;61204;49.980;8.358;2024-01-07T13:43:25;100860.13;;;2.51
72278;BMP280;61204;49.980;8.358;2024-01-07T13:45:54;100857.47;;;2.45
72278;BMP280;61204;49.980;8.358;2024-01-07T13:48:20;100867.69;;;2.33
72278;BMP280;61204;49.980;8.358;2024-01-07T13:50:46;100860.16;;;2.26
72278;BMP280;61204;49.980;8.358;2024-01-07T13:53:15;100856.94;;;2.28
72278;BMP280;61204;49.980;8.358;2024-01-07T13:55:45;100871.50;;;2.25
72278;BMP280;61204;49.980;8.358;2024-01-07T13:58:14;100852.75;;;2.27
72278;BMP280;61204;49.980;8.358;2024-01-07T14:00:40;100877.03;;;2.32
72278;BMP280;61204;49.980;8.358;2024-01-07T14:03:06;100882.47;;;2.32
72278;BMP280;61204;49.980;8.358;2024-01-07T14:05:32;100885.25;;;2.45
72278;BMP280;61204;49.980;8.358;2024-01-07T14:08:00;100878.22;;;2.37
72278;BMP280;61204;49.980;8.358;2024-01-07T14:10:26;100901.47;;;2.27
72278;BMP280;61204;49.980;8.358;2024-01-07T14:12:55;100886.38;;;2.12